Huvudsida
METAR-TAF:

METAR-TAF

Flygplatser :

Bornholms flygplats

Rønne, Danmark

latitud: 55-04N, longitud: 014-45E, höjd: 16 m

Aktuellt väderrapport

Denna rapport gjordes för 10 minuter sedan, klockan 13:50 UTC
Vind 8 kt från ost/sydost
Temperatur 16°C
Fuktighet 68%
Tryck 1016 hPa
Sikt 10 km eller mer
Inga moln under 1 500 m eller inga cumulonimbus

METAR: EKRN 151350Z 12008KT CAVOK 16/10 Q1016

Tid: 16:00 (14:00 UTC)

Väderprognos

Denna rapport gjordes för 2 timmar och 53 minuter sedan, klockan 11:07 UTC
Prognos gäller från 15 kl. 12 UTC till 15 kl. 21 UTC
Vind 10 kt från syd/sydost
Sikt 10 km eller mer
Inga moln under 1 500 m eller inga cumulonimbus

TAF: EKRN 151107Z 1512/1521 15010KT CAVOK

Aktuella väderrapporter och prognoser från 4000 flygplatser (METAR- och TAF-rapporter).

De tillgängliga stationerna syns som gula och röda prickar på kartan.

För musen över prickarna för att se namnen på stationerna.

Klicka sedan för att få väderrapporter och prognoser.

För att ändra kartan: Klicka på de gröna knapparna med ett svart kors på för att zooma in; den gröna knappen med ett streck på för att zooma ut; eller på de gröna pilarna för angränsande kartor.


METAR-TAF: